Time;durP1;ratioP1;P1;durP2;ratioP2;P2;SDS_P1;SDS_P2;PMS_P1;PMS_P2;Temp;Humidity;BMP_temperature;BMP_pressure;BME280_temperature;BME280_humidity;BME280_pressure;Samples;Min_cycle;Max_cycle;Signal;HPM_P1;HPM_P2
2023/02/15 00:06:04;;;;;;;8.55;5.75;;;;;;;;;;21076263;28;20087;-61
2023/02/15 00:16:07;;;;;;;8.07;6.10;;;;;;;;;;21077138;28;20405;-62
2023/02/15 00:26:11;;;;;;;9.57;5.85;;;;;;;;;;21077234;28;20443;-60
2023/02/15 00:36:13;;;;;;;13.38;5.88;;;;;;;;;;21088725;28;20055;-62
2023/02/15 00:46:15;;;;;;;10.05;5.80;;;;;;;;;;21089914;28;20067;-61
2023/02/15 00:56:17;;;;;;;9.57;5.72;;;;;;;;;;21090863;28;20040;-61
2023/02/15 01:06:20;;;;;;;9.45;6.10;;;;;;;;;;21090786;28;20051;-61
2023/02/15 01:16:22;;;;;;;7.63;5.07;;;;;;;;;;21090510;28;20466;-64
2023/02/15 01:26:24;;;;;;;10.30;5.95;;;;;;;;;;21071102;28;20048;-63
2023/02/15 01:36:26;;;;;;;8.98;5.80;;;;;;;;;;21088372;28;20117;-64
2023/02/15 01:46:28;;;;;;;9.35;5.50;;;;;;;;;;21086129;28;20433;-63
2023/02/15 01:56:34;;;;;;;9.23;5.75;;;;;;;;;;21087463;28;20444;-62
2023/02/15 02:06:37;;;;;;;8.93;5.60;;;;;;;;;;21086465;28;20051;-63
2023/02/15 02:16:59;;;;;;;12.10;6.38;;;;;;;;;;21084439;28;20060;-61
2023/02/15 02:27:01;;;;;;;8.07;6.00;;;;;;;;;;21085143;28;20048;-63
2023/02/15 02:37:03;;;;;;;8.82;5.50;;;;;;;;;;21082551;28;20397;-61
2023/02/15 02:47:10;;;;;;;7.57;4.95;;;;;;;;;;20999527;28;20450;-61
2023/02/15 02:57:12;;;;;;;8.55;5.63;;;;;;;;;;20998553;28;20540;-62
2023/02/15 03:07:21;;;;;;;10.43;6.32;;;;;;;;;;20996676;28;20144;-62
2023/02/15 03:17:24;;;;;;;;;;;;;;;;;;20997957;28;20076;-61
2023/02/15 03:27:33;;;;;;;10.90;5.55;;;;;;;;;;20995421;28;19943;-60
2023/02/15 03:37:47;;;;;;;8.18;5.57;;;;;;;;;;21001645;28;20052;-61
2023/02/15 03:47:53;;;;;;;11.45;5.93;;;;;;;;;;21079209;28;20466;-62
2023/02/15 04:08:17;;;;;;;6.60;5.03;;;;;;;;;;21090133;28;20048;-63
2023/02/15 04:18:20;;;;;;;9.65;5.72;;;;;;;;;;21094874;28;20048;-61
2023/02/15 04:28:22;;;;;;;7.57;5.45;;;;;;;;;;21094416;28;20398;-60
2023/02/15 04:38:24;;;;;;;8.70;5.38;;;;;;;;;;21092653;28;20135;-60
2023/02/15 04:48:32;;;;;;;9.70;5.95;;;;;;;;;;21092742;28;20074;-61
2023/02/15 04:58:36;;;;;;;7.93;4.88;;;;;;;;;;21091882;28;20048;-61
2023/02/15 05:08:38;;;;;;;9.38;5.80;;;;;;;;;;21091149;28;20072;-61
2023/02/15 05:18:40;;;;;;;10.43;5.93;;;;;;;;;;21087878;28;20087;-62
2023/02/15 05:28:42;;;;;;;9.95;5.80;;;;;;;;;;21089298;28;20431;-60
2023/02/15 05:38:45;;;;;;;9.00;5.78;;;;;;;;;;21087964;28;20498;-62
2023/02/15 05:48:47;;;;;;;9.65;5.70;;;;;;;;;;21087019;28;20131;-61
2023/02/15 05:58:49;;;;;;;8.95;5.15;;;;;;;;;;21086772;28;20506;-61
2023/02/15 06:08:51;;;;;;;11.15;5.95;;;;;;;;;;21084742;28;20138;-60
2023/02/15 06:18:53;;;;;;;9.95;5.60;;;;;;;;;;21085370;28;20051;-60
2023/02/15 06:28:56;;;;;;;8.35;5.93;;;;;;;;;;21085143;28;20551;-61
2023/02/15 06:38:58;;;;;;;9.77;5.68;;;;;;;;;;21083209;28;20120;-62
2023/02/15 06:49:00;;;;;;;9.10;5.40;;;;;;;;;;21082916;28;20055;-60
2023/02/15 06:59:02;;;;;;;11.15;6.30;;;;;;;;;;21081094;28;20078;-63
2023/02/15 07:09:04;;;;;;;11.35;4.88;;;;;;;;;;21080196;28;20046;-62
2023/02/15 07:19:07;;;;;;;9.52;5.60;;;;;;;;;;21062103;28;20087;-63
2023/02/15 07:29:09;;;;;;;8.23;5.35;;;;;;;;;;21080563;28;20147;-64
2023/02/15 07:39:11;;;;;;;8.82;4.68;;;;;;;;;;21079133;28;20059;-62
2023/02/15 07:49:14;;;;;;;8.27;5.05;;;;;;;;;;21079332;28;20048;-61
2023/02/15 07:59:16;;;;;;;9.40;5.13;;;;;;;;;;21078802;28;20055;-61
2023/02/15 08:09:18;;;;;;;12.15;5.93;;;;;;;;;;21078732;28;20395;-61
2023/02/15 08:19:21;;;;;;;12.05;5.60;;;;;;;;;;21078407;28;20052;-64
2023/02/15 08:29:24;;;;;;;10.05;5.00;;;;;;;;;;21076630;28;20052;-63
2023/02/15 08:39:26;;;;;;;9.75;5.72;;;;;;;;;;21075063;28;20052;-62
2023/02/15 08:49:28;;;;;;;11.40;5.50;;;;;;;;;;21079397;28;20089;-63
2023/02/15 08:59:30;;;;;;;8.85;5.20;;;;;;;;;;21092466;28;20482;-61
2023/02/15 09:09:32;;;;;;;9.65;5.30;;;;;;;;;;21091627;28;20040;-64
2023/02/15 09:19:34;;;;;;;11.95;4.68;;;;;;;;;;21089441;28;20044;-65
2023/02/15 09:29:36;;;;;;;6.22;3.45;;;;;;;;;;21070798;28;20046;-62
2023/02/15 09:39:39;;;;;;;4.75;3.42;;;;;;;;;;21088899;28;20052;-62
2023/02/15 09:49:57;;;;;;;7.55;3.70;;;;;;;;;;21089224;28;20080;-71
2023/02/15 10:00:05;;;;;;;6.35;3.38;;;;;;;;;;21090224;28;20545;-66
2023/02/15 10:10:13;;;;;;;8.32;3.53;;;;;;;;;;21091894;28;20051;-72
2023/02/15 10:20:24;;;;;;;6.20;2.85;;;;;;;;;;21088113;28;20059;-67
2023/02/15 10:30:36;;;;;;;6.72;3.67;;;;;;;;;;21085905;28;20040;-61
2023/02/15 10:40:41;;;;;;;6.65;3.78;;;;;;;;;;21083762;28;20043;-67
2023/02/15 10:50:43;;;;;;;4.82;2.80;;;;;;;;;;21083796;28;20512;-59
2023/02/15 11:01:03;;;;;;;8.63;3.97;;;;;;;;;;21082081;28;20055;-65
2023/02/15 11:11:07;;;;;;;8.85;4.00;;;;;;;;;;21080122;28;20093;-67
2023/02/15 11:21:19;;;;;;;8.05;3.08;;;;;;;;;;21080937;28;20131;-67
2023/02/15 11:31:26;;;;;;;6.28;4.05;;;;;;;;;;21078085;28;20135;-67
2023/02/15 11:41:35;;;;;;;11.45;4.03;;;;;;;;;;21078647;28;20048;-63
2023/02/15 11:51:36;;;;;;;15.47;4.73;;;;;;;;;;21078588;28;20052;-63
2023/02/15 12:01:41;;;;;;;5.53;3.58;;;;;;;;;;21079635;28;20069;-63
2023/02/15 12:11:43;;;;;;;22.48;11.95;;;;;;;;;;21077774;28;20048;-65
2023/02/15 12:21:45;;;;;;;8.45;4.57;;;;;;;;;;21079892;28;20056;-66
2023/02/15 12:31:50;;;;;;;9.40;4.50;;;;;;;;;;21093146;28;20523;-66
2023/02/15 12:41:57;;;;;;;7.47;3.80;;;;;;;;;;21091522;28;20052;-66
2023/02/15 12:52:00;;;;;;;7.97;3.67;;;;;;;;;;21091715;28;20044;-65
2023/02/15 13:02:07;;;;;;;11.20;4.43;;;;;;;;;;21092448;28;20052;-64
2023/02/15 13:12:18;;;;;;;6.30;4.28;;;;;;;;;;21089568;28;20055;-65
2023/02/15 13:22:26;;;;;;;8.43;4.75;;;;;;;;;;21089885;28;20532;-64
2023/02/15 13:32:34;;;;;;;9.52;4.50;;;;;;;;;;21087600;28;20048;-66
2023/02/15 13:42:40;;;;;;;10.40;4.60;;;;;;;;;;21087808;28;20135;-66
2023/02/15 13:52:58;;;;;;;8.32;4.43;;;;;;;;;;21087898;28;20073;-63
2023/02/15 14:03:18;;;;;;;13.32;4.75;;;;;;;;;;21085432;28;20109;-65
2023/02/15 14:13:31;;;;;;;11.18;4.90;;;;;;;;;;21086127;28;20048;-66
2023/02/15 14:23:42;;;;;;;9.98;4.78;;;;;;;;;;21084969;28;20103;-66
2023/02/15 14:33:53;;;;;;;12.55;4.90;;;;;;;;;;21065918;28;20516;-66
2023/02/15 14:43:58;;;;;;;9.02;3.65;;;;;;;;;;21082329;28;20093;-66
2023/02/15 14:54:00;;;;;;;6.40;4.32;;;;;;;;;;21080522;28;20109;-64
2023/02/15 15:04:14;;;;;;;9.57;4.18;;;;;;;;;;21081935;28;20074;-64
2023/02/15 15:14:42;;;;;;;10.02;3.78;;;;;;;;;;21082247;28;20052;-64
2023/02/15 15:24:44;;;;;;;5.78;4.15;;;;;;;;;;21075145;28;20386;-63
2023/02/15 15:34:45;;;;;;;7.90;4.53;;;;;;;;;;21080044;28;20044;-66
2023/02/15 15:45:07;;;;;;;8.10;4.40;;;;;;;;;;21060245;28;20076;-70
2023/02/15 15:55:16;;;;;;;15.75;4.65;;;;;;;;;;21079313;28;20087;-66
2023/02/15 16:05:20;;;;;;;11.18;3.67;;;;;;;;;;21091977;28;20153;-67
2023/02/15 16:15:23;;;;;;;7.68;3.58;;;;;;;;;;21094670;28;20044;-66
2023/02/15 16:25:31;;;;;;;10.15;3.67;;;;;;;;;;21093994;28;20059;-66
2023/02/15 16:35:33;;;;;;;10.15;3.80;;;;;;;;;;21093223;28;20525;-66
2023/02/15 16:45:38;;;;;;;2.75;1.00;;;;;;;;;;21092748;28;20056;-66
2023/02/15 16:55:42;;;;;;;3.83;2.40;;;;;;;;;;21091617;28;20047;-70
2023/02/15 17:05:52;;;;;;;9.00;2.85;;;;;;;;;;21091187;28;20074;-68
2023/02/15 17:16:00;;;;;;;20.52;9.35;;;;;;;;;;21090591;28;20470;-65
2023/02/15 17:26:16;;;;;;;6.65;3.45;;;;;;;;;;21091330;28;20059;-67
2023/02/15 17:36:21;;;;;;;12.93;8.73;;;;;;;;;;21090580;28;20127;-74
2023/02/15 17:46:24;;;;;;;12.35;3.78;;;;;;;;;;21089741;28;20059;-70
2023/02/15 17:56:26;;;;;;;13.45;3.85;;;;;;;;;;21089342;28;20464;-66
2023/02/15 18:16:49;;;;;;;9.20;4.38;;;;;;;;;;21086279;28;20040;-65
2023/02/15 18:26:51;;;;;;;7.60;3.60;;;;;;;;;;21085399;28;20493;-68
2023/02/15 18:36:54;;;;;;;15.90;6.50;;;;;;;;;;21084210;28;20040;-70
2023/02/15 18:46:56;;;;;;;14.80;7.40;;;;;;;;;;21082887;28;20055;-66
2023/02/15 18:56:58;;;;;;;9.15;4.22;;;;;;;;;;21081972;28;20040;-69
2023/02/15 19:07:03;;;;;;;9.15;3.75;;;;;;;;;;21062746;28;20083;-68
2023/02/15 19:17:12;;;;;;;8.27;4.22;;;;;;;;;;21061879;28;20048;-68
2023/02/15 19:27:20;;;;;;;10.70;3.67;;;;;;;;;;21081235;28;20050;-67
2023/02/15 19:37:23;;;;;;;8.05;3.67;;;;;;;;;;21079614;28;20047;-68
2023/02/15 19:47:28;;;;;;;11.13;3.63;;;;;;;;;;21080175;28;20052;-69
2023/02/15 19:57:30;;;;;;;12.20;4.03;;;;;;;;;;21079236;28;20083;-67
2023/02/15 20:07:32;;;;;;;8.45;4.45;;;;;;;;;;21060248;28;20489;-69
2023/02/15 20:17:34;;;;;;;9.52;3.72;;;;;;;;;;21079293;28;20040;-68
2023/02/15 20:27:36;;;;;;;8.82;4.28;;;;;;;;;;21079123;28;20390;-69
2023/02/15 20:37:38;;;;;;;5.05;3.25;;;;;;;;;;21076999;28;20056;-68
2023/02/15 20:47:43;;;;;;;10.93;3.30;;;;;;;;;;21083434;28;20063;-68
2023/02/15 20:57:45;;;;;;;8.55;4.13;;;;;;;;;;21093523;28;20402;-69
2023/02/15 21:07:47;;;;;;;11.90;3.92;;;;;;;;;;21091291;28;20055;-68
2023/02/15 21:17:49;;;;;;;8.68;4.18;;;;;;;;;;21091706;28;20130;-68
2023/02/15 21:27:53;;;;;;;7.90;3.95;;;;;;;;;;21090719;28;20550;-69
2023/02/15 21:37:54;;;;;;;11.70;4.25;;;;;;;;;;21089368;28;20117;-69
2023/02/15 21:47:56;;;;;;;17.35;9.30;;;;;;;;;;21089011;28;20048;-69
2023/02/15 21:57:59;;;;;;;10.77;5.82;;;;;;;;;;21087489;28;20059;-69
2023/02/15 22:08:01;;;;;;;14.05;6.18;;;;;;;;;;21087679;28;20135;-70
2023/02/15 22:18:03;;;;;;;11.23;5.32;;;;;;;;;;21085239;28;20085;-69
2023/02/15 22:28:07;;;;;;;14.68;5.55;;;;;;;;;;21084364;28;20051;-68
2023/02/15 22:38:09;;;;;;;12.50;4.75;;;;;;;;;;21083949;28;20052;-69
2023/02/15 22:48:11;;;;;;;9.60;4.38;;;;;;;;;;21084318;28;20048;-69
2023/02/15 22:58:16;;;;;;;10.70;4.93;;;;;;;;;;21083417;28;20144;-69
2023/02/15 23:08:18;;;;;;;8.52;4.28;;;;;;;;;;21083401;28;20129;-68
2023/02/15 23:18:23;;;;;;;11.32;4.60;;;;;;;;;;21083017;28;20097;-70
2023/02/15 23:28:27;;;;;;;9.05;5.07;;;;;;;;;;21083607;28;20460;-69
2023/02/15 23:38:30;;;;;;;8.88;4.72;;;;;;;;;;21080485;28;20063;-69
2023/02/15 23:48:36;;;;;;;10.20;4.95;;;;;;;;;;21080205;28;20496;-68
2023/02/15 23:58:40;;;;;;;9.77;4.90;;;;;;;;;;21079668;28;20051;-68
